createdAt,value
2023-05-08T00:00:02.099Z,99.90
2023-05-08T00:02:29.177Z,99.90
2023-05-08T00:04:56.310Z,99.90
2023-05-08T00:07:23.450Z,99.90
2023-05-08T00:09:50.458Z,99.90
2023-05-08T00:12:17.445Z,99.90
2023-05-08T00:14:44.459Z,99.90
2023-05-08T00:17:11.520Z,99.90
2023-05-08T00:19:38.505Z,99.90
2023-05-08T00:22:05.605Z,99.90
2023-05-08T00:24:32.701Z,99.90
2023-05-08T00:26:59.911Z,99.90
2023-05-08T00:29:26.896Z,99.90
2023-05-08T00:31:53.874Z,99.90
2023-05-08T00:34:20.855Z,99.90
2023-05-08T00:36:47.858Z,99.90
2023-05-08T00:39:14.879Z,99.90
2023-05-08T00:41:41.974Z,99.90
2023-05-08T00:44:09.277Z,99.90
2023-05-08T00:46:37.245Z,99.90
2023-05-08T00:49:05.900Z,99.90
2023-05-08T00:51:33.855Z,99.90
2023-05-08T00:54:01.504Z,99.90
2023-05-08T00:56:29.867Z,99.90
2023-05-08T00:58:57.130Z,99.90
2023-05-08T01:01:25.080Z,99.90
2023-05-08T01:03:55.115Z,99.90
2023-05-08T01:06:22.190Z,99.90
2023-05-08T01:08:49.256Z,99.90
2023-05-08T01:11:49.908Z,99.90
2023-05-08T01:14:48.216Z,99.90
2023-05-08T01:17:50.375Z,99.90
2023-05-08T01:20:46.988Z,99.90
2023-05-08T01:24:33.773Z,99.90
2023-05-08T01:27:29.087Z,99.90
2023-05-08T01:30:24.538Z,99.90
2023-05-08T01:33:02.525Z,99.90
2023-05-08T01:35:41.442Z,99.90
2023-05-08T01:39:12.262Z,99.90
2023-05-08T01:41:43.281Z,99.90
2023-05-08T01:44:19.854Z,99.90
2023-05-08T01:46:51.070Z,99.90
2023-05-08T01:49:30.499Z,99.90
2023-05-08T01:52:03.919Z,99.90
2023-05-08T01:54:58.742Z,99.90
2023-05-08T01:57:29.971Z,99.90
2023-05-08T02:00:00.130Z,99.90
2023-05-08T02:02:30.498Z,99.90
2023-05-08T02:04:58.927Z,99.90
2023-05-08T02:07:27.888Z,99.90
2023-05-08T02:09:57.008Z,99.90
2023-05-08T02:12:26.509Z,99.90
2023-05-08T02:14:54.821Z,99.90
2023-05-08T02:17:22.152Z,99.90
2023-05-08T02:19:51.326Z,99.90
2023-05-08T02:22:20.306Z,99.90
2023-05-08T02:24:48.158Z,99.90
2023-05-08T02:27:16.680Z,99.90
2023-05-08T02:29:43.943Z,99.90
2023-05-08T02:32:12.215Z,99.90
2023-05-08T02:34:45.284Z,99.90
2023-05-08T02:37:21.222Z,99.90
2023-05-08T02:39:49.358Z,99.90
2023-05-08T02:42:16.594Z,99.90
2023-05-08T02:44:43.790Z,99.90
2023-05-08T02:47:28.012Z,99.90
2023-05-08T02:50:27.033Z,99.90
2023-05-08T02:53:04.897Z,99.90
2023-05-08T02:55:53.846Z,99.90
2023-05-08T02:58:55.377Z,99.90
2023-05-08T03:01:33.547Z,99.90
2023-05-08T03:04:07.866Z,99.90
2023-05-08T03:06:45.865Z,99.90
2023-05-08T03:09:19.564Z,99.90
2023-05-08T03:11:53.741Z,99.90
2023-05-08T03:14:26.021Z,99.90
2023-05-08T03:16:55.620Z,99.90
2023-05-08T03:19:37.212Z,99.90
2023-05-08T03:22:07.216Z,99.90
2023-05-08T03:24:39.244Z,99.90
2023-05-08T03:27:08.059Z,99.90
2023-05-08T03:29:36.564Z,99.90
2023-05-08T03:32:04.742Z,99.90
2023-05-08T03:34:34.010Z,99.90
2023-05-08T03:37:01.017Z,99.90
2023-05-08T03:39:28.060Z,99.90
2023-05-08T03:41:56.888Z,99.90
2023-05-08T03:44:24.905Z,99.90
2023-05-08T03:46:56.116Z,99.90
2023-05-08T03:49:26.374Z,99.90
2023-05-08T03:51:57.899Z,99.90
2023-05-08T03:54:25.598Z,99.90
2023-05-08T03:56:54.382Z,99.90
2023-05-08T04:00:16.503Z,99.90
2023-05-08T04:02:50.625Z,99.90
2023-05-08T04:05:47.026Z,99.90
2023-05-08T04:08:25.133Z,99.90
2023-05-08T04:11:25.411Z,99.90
2023-05-08T04:14:03.728Z,99.90
2023-05-08T04:16:38.708Z,99.90
2023-05-08T04:19:15.297Z,99.90
2023-05-08T04:21:44.627Z,99.90
2023-05-08T04:24:15.805Z,99.90
2023-05-08T04:26:44.562Z,99.90
2023-05-08T04:29:11.889Z,99.90
2023-05-08T04:31:40.908Z,99.90
2023-05-08T04:34:09.711Z,99.90
2023-05-08T04:36:37.700Z,99.90
2023-05-08T04:39:05.248Z,99.90
2023-05-08T04:41:33.082Z,99.90
2023-05-08T04:44:00.713Z,99.90
2023-05-08T04:46:27.845Z,99.90
2023-05-08T04:48:54.865Z,99.90
2023-05-08T04:51:21.955Z,99.90
2023-05-08T04:53:48.968Z,99.90
2023-05-08T04:56:16.145Z,99.90
2023-05-08T04:58:43.286Z,99.90
2023-05-08T05:01:10.467Z,99.90
2023-05-08T05:03:37.587Z,99.90
2023-05-08T05:06:04.791Z,99.90
2023-05-08T05:08:31.771Z,99.90
2023-05-08T05:10:58.757Z,99.90
2023-05-08T05:13:25.790Z,99.90
2023-05-08T05:15:54.380Z,99.90
2023-05-08T05:18:21.787Z,99.90
2023-05-08T05:20:48.863Z,99.90
2023-05-08T05:23:15.856Z,99.90
2023-05-08T05:25:43.263Z,99.90
2023-05-08T05:28:10.329Z,99.90
2023-05-08T05:30:37.365Z,99.90
2023-05-08T05:33:04.826Z,99.90
2023-05-08T05:35:31.876Z,99.90
2023-05-08T05:37:58.946Z,99.90
2023-05-08T05:40:25.986Z,99.90
2023-05-08T05:42:53.068Z,99.90
2023-05-08T05:45:20.205Z,99.90
2023-05-08T05:47:54.258Z,99.90
2023-05-08T05:50:22.640Z,99.90
2023-05-08T05:52:49.681Z,99.90
2023-05-08T05:55:17.199Z,98.10
2023-05-08T05:57:44.412Z,99.90
2023-05-08T06:00:12.292Z,73.90
2023-05-08T06:02:39.551Z,47.90
2023-05-08T06:05:07.491Z,99.90
2023-05-08T06:07:34.665Z,99.90
2023-05-08T06:10:02.322Z,54.40
2023-05-08T06:12:29.935Z,1.00
2023-05-08T06:14:57.124Z,12.00
2023-05-08T06:17:24.221Z,13.20
2023-05-08T06:19:54.183Z,1.00
2023-05-08T06:22:27.404Z,1.00
2023-05-08T06:24:54.474Z,1.00
2023-05-08T06:27:22.587Z,1.00
2023-05-08T06:29:53.110Z,1.00
2023-05-08T06:32:21.306Z,1.00
2023-05-08T06:34:48.847Z,1.00
2023-05-08T06:37:15.982Z,1.00
2023-05-08T06:39:43.066Z,99.90
2023-05-08T06:42:10.479Z,1.00
2023-05-08T06:44:37.655Z,99.90
2023-05-08T06:47:04.726Z,99.90
2023-05-08T06:49:31.755Z,99.90
2023-05-08T06:51:58.894Z,99.90
2023-05-08T06:54:25.937Z,13.80
2023-05-08T06:56:54.313Z,99.90
2023-05-08T06:59:23.384Z,1.00
2023-05-08T07:01:50.945Z,1.00
2023-05-08T07:04:18.068Z,1.00
2023-05-08T07:06:45.128Z,1.00
2023-05-08T07:09:12.906Z,1.00
2023-05-08T07:11:40.132Z,1.00
2023-05-08T07:14:07.241Z,99.90
2023-05-08T07:16:34.925Z,1.00
2023-05-08T07:19:02.102Z,1.00
2023-05-08T07:21:29.718Z,1.00
2023-05-08T07:23:56.821Z,1.00
2023-05-08T07:26:24.888Z,1.00
2023-05-08T07:28:54.163Z,1.00
2023-05-08T07:31:21.995Z,99.90
2023-05-08T07:33:49.013Z,1.00
2023-05-08T07:36:16.036Z,1.00
2023-05-08T07:38:43.041Z,1.00
2023-05-08T07:41:10.264Z,1.00
2023-05-08T07:43:37.386Z,1.00
2023-05-08T07:46:05.386Z,99.90
2023-05-08T07:48:32.320Z,99.90
2023-05-08T07:50:59.304Z,43.00
2023-05-08T07:53:26.351Z,1.00
2023-05-08T07:55:53.321Z,1.00
2023-05-08T07:58:21.613Z,99.90
2023-05-08T08:00:50.728Z,99.90
2023-05-08T08:03:17.784Z,99.90
2023-05-08T08:05:44.921Z,79.20
2023-05-08T08:08:11.956Z,99.90
2023-05-08T08:10:39.903Z,1.00
2023-05-08T08:13:07.232Z,99.90
2023-05-08T08:15:34.321Z,1.00
2023-05-08T08:18:01.773Z,99.90
2023-05-08T08:20:29.277Z,99.90
2023-05-08T08:22:56.374Z,15.80
2023-05-08T08:25:23.530Z,1.00
2023-05-08T08:27:50.651Z,99.90
2023-05-08T08:30:18.793Z,99.90
2023-05-08T08:32:46.965Z,1.00
2023-05-08T08:35:14.544Z,1.00
2023-05-08T08:37:42.064Z,1.00
2023-05-08T08:40:09.775Z,1.00
2023-05-08T08:42:37.171Z,99.90
2023-05-08T08:45:04.840Z,99.90
2023-05-08T08:47:41.470Z,99.90
2023-05-08T08:50:12.788Z,99.50
2023-05-08T08:53:27.336Z,47.80
2023-05-08T08:55:58.191Z,1.00
2023-05-08T08:58:39.088Z,1.00
2023-05-08T09:01:07.878Z,1.00
2023-05-08T09:03:35.144Z,1.00
2023-05-08T09:06:02.723Z,1.00
2023-05-08T09:08:29.986Z,1.00
2023-05-08T09:10:57.777Z,15.40
2023-05-08T09:13:24.890Z,1.00
2023-05-08T09:15:52.029Z,1.00
2023-05-08T09:18:19.371Z,1.00
2023-05-08T09:20:47.130Z,1.00
2023-05-08T09:23:17.587Z,1.00
2023-05-08T09:25:46.862Z,1.00
2023-05-08T09:28:22.091Z,1.00
2023-05-08T09:30:58.731Z,1.00
2023-05-08T09:33:28.862Z,1.00
2023-05-08T09:35:57.422Z,1.00
2023-05-08T09:38:34.692Z,1.00
2023-05-08T09:41:09.362Z,1.00
2023-05-08T09:43:36.951Z,1.00
2023-05-08T09:46:22.364Z,1.00
2023-05-08T09:48:57.991Z,1.00
2023-05-08T09:51:28.443Z,1.00
2023-05-08T09:53:58.347Z,1.00
2023-05-08T09:56:38.036Z,1.00
2023-05-08T09:59:31.811Z,1.00
2023-05-08T10:02:09.691Z,1.00
2023-05-08T10:04:38.278Z,1.00
2023-05-08T10:07:05.713Z,36.30
2023-05-08T10:09:43.070Z,4.70
2023-05-08T10:12:17.236Z,1.00
2023-05-08T10:14:46.562Z,1.00
2023-05-08T10:17:21.556Z,1.00
2023-05-08T10:19:52.867Z,1.00
2023-05-08T10:22:25.358Z,1.00
2023-05-08T10:24:58.577Z,1.00
2023-05-08T10:27:44.151Z,1.00
2023-05-08T10:30:15.022Z,1.00
2023-05-08T10:32:51.203Z,1.00
2023-05-08T10:35:18.937Z,1.00
2023-05-08T10:37:47.590Z,1.00
2023-05-08T10:40:18.755Z,1.00
2023-05-08T10:42:46.258Z,1.00
2023-05-08T10:45:13.648Z,1.00
2023-05-08T10:48:16.843Z,1.00
2023-05-08T10:51:15.136Z,1.00
2023-05-08T10:54:05.370Z,1.00
2023-05-08T10:56:32.418Z,1.00
2023-05-08T10:58:59.813Z,1.00
2023-05-08T11:01:27.151Z,1.00
2023-05-08T11:03:57.289Z,1.00
2023-05-08T11:06:46.802Z,1.00
2023-05-08T11:09:29.550Z,1.00
2023-05-08T11:12:32.757Z,1.00
2023-05-08T11:15:10.705Z,1.00
2023-05-08T11:17:43.498Z,1.00
2023-05-08T11:20:11.953Z,99.90
2023-05-08T11:22:49.938Z,1.00
2023-05-08T11:25:17.519Z,99.90
2023-05-08T11:28:10.286Z,99.90
2023-05-08T11:30:42.589Z,99.90
2023-05-08T11:33:09.820Z,99.90
2023-05-08T11:36:01.053Z,99.90
2023-05-08T11:38:38.511Z,99.90
2023-05-08T11:41:33.829Z,99.90
2023-05-08T11:44:15.068Z,99.90
2023-05-08T11:46:52.780Z,99.90
2023-05-08T11:49:26.934Z,99.90
2023-05-08T11:51:59.969Z,99.90
2023-05-08T11:54:31.619Z,99.90
2023-05-08T11:57:00.662Z,99.90
2023-05-08T11:59:28.108Z,99.90
2023-05-08T12:04:25.427Z,99.90
2023-05-08T12:07:02.660Z,99.90
2023-05-08T12:09:39.686Z,99.90
2023-05-08T12:12:07.496Z,99.90
2023-05-08T12:14:36.700Z,99.90
2023-05-08T12:17:06.977Z,99.90
2023-05-08T12:19:35.739Z,99.90
2023-05-08T12:22:06.244Z,99.90
2023-05-08T12:24:33.884Z,99.90
2023-05-08T12:27:03.366Z,99.90
2023-05-08T12:29:31.034Z,99.90
2023-05-08T12:31:58.345Z,99.90
2023-05-08T12:34:27.250Z,99.90
2023-05-08T12:37:07.722Z,99.90
2023-05-08T12:39:37.593Z,99.90
2023-05-08T12:42:05.927Z,99.90
2023-05-08T12:44:36.314Z,99.90
2023-05-08T12:47:07.143Z,99.90
2023-05-08T12:49:34.368Z,99.90
2023-05-08T12:52:14.329Z,99.90
2023-05-08T12:54:50.658Z,99.90
2023-05-08T12:57:27.223Z,99.90
2023-05-08T13:00:05.283Z,99.90
2023-05-08T13:02:37.217Z,99.90
2023-05-08T13:05:06.827Z,99.90
2023-05-08T13:07:37.186Z,99.90
2023-05-08T13:10:11.470Z,99.90
2023-05-08T13:12:41.502Z,99.90
2023-05-08T13:15:13.161Z,99.90
2023-05-08T13:17:40.726Z,99.90
2023-05-08T13:20:09.389Z,99.90
2023-05-08T13:22:36.490Z,99.90
2023-05-08T13:25:04.032Z,99.90
2023-05-08T13:27:31.116Z,99.90
2023-05-08T13:29:58.135Z,99.90
2023-05-08T13:32:25.658Z,99.90
2023-05-08T13:34:55.868Z,99.90
2023-05-08T13:37:25.953Z,99.90
2023-05-08T13:39:53.240Z,99.90
2023-05-08T13:42:20.362Z,99.90
2023-05-08T13:44:47.396Z,99.90
2023-05-08T13:47:14.600Z,99.90
2023-05-08T13:49:41.892Z,99.90
2023-05-08T13:52:08.966Z,99.90
2023-05-08T13:54:36.129Z,99.90
2023-05-08T13:57:03.662Z,99.90
2023-05-08T13:59:31.552Z,99.90
2023-05-08T14:01:58.641Z,99.90
2023-05-08T14:04:25.866Z,99.90
2023-05-08T14:06:53.018Z,99.90
2023-05-08T14:09:20.159Z,99.90
2023-05-08T14:11:47.208Z,80.70
2023-05-08T14:14:14.324Z,76.30
2023-05-08T14:16:41.658Z,99.90
2023-05-08T14:19:08.940Z,91.90
2023-05-08T14:21:36.972Z,91.70
2023-05-08T14:24:04.363Z,99.90
2023-05-08T14:26:31.434Z,99.90
2023-05-08T14:28:58.703Z,91.90
2023-05-08T14:31:25.788Z,99.90
2023-05-08T14:33:52.980Z,99.90
2023-05-08T14:36:20.094Z,99.90
2023-05-08T14:38:47.384Z,99.90
2023-05-08T14:41:14.621Z,99.90
2023-05-08T14:43:42.962Z,99.90
2023-05-08T14:46:10.023Z,99.90
2023-05-08T14:48:37.031Z,99.90
2023-05-08T14:51:04.225Z,99.90
2023-05-08T14:53:31.615Z,99.90
2023-05-08T14:55:59.859Z,99.90
2023-05-08T14:58:27.413Z,99.90
2023-05-08T15:00:54.484Z,99.90
2023-05-08T15:03:21.740Z,99.90
2023-05-08T15:05:48.810Z,99.90
2023-05-08T15:08:15.957Z,99.90
2023-05-08T15:10:43.376Z,99.90
2023-05-08T15:13:10.410Z,99.90
2023-05-08T15:15:37.470Z,99.90
2023-05-08T15:18:04.624Z,99.90
2023-05-08T15:20:31.736Z,99.90
2023-05-08T15:22:58.735Z,99.90
2023-05-08T15:25:28.715Z,99.90
2023-05-08T15:27:56.165Z,99.90
2023-05-08T15:30:25.007Z,99.90
2023-05-08T15:32:52.834Z,96.60
2023-05-08T15:35:19.936Z,99.90
2023-05-08T15:37:47.042Z,99.90
2023-05-08T15:40:14.175Z,92.10
2023-05-08T15:42:41.218Z,99.90
2023-05-08T15:45:09.119Z,90.20
2023-05-08T15:47:36.230Z,89.00
2023-05-08T15:50:03.555Z,99.90
2023-05-08T15:52:31.083Z,99.90
2023-05-08T15:54:58.105Z,90.60
2023-05-08T15:57:27.080Z,99.90
2023-05-08T15:59:54.198Z,99.90
2023-05-08T16:02:21.525Z,72.80
2023-05-08T16:04:48.627Z,79.30
2023-05-08T16:07:15.699Z,84.90
2023-05-08T16:09:42.811Z,99.90
2023-05-08T16:12:09.960Z,77.10
2023-05-08T16:14:37.104Z,99.90
2023-05-08T16:17:04.725Z,76.30
2023-05-08T16:19:36.489Z,98.40
2023-05-08T16:22:03.532Z,81.70
2023-05-08T16:24:33.423Z,99.90
2023-05-08T16:27:00.634Z,93.00
2023-05-08T16:29:27.654Z,99.90
2023-05-08T16:31:54.741Z,99.90
2023-05-08T16:34:21.885Z,91.90
2023-05-08T16:36:48.883Z,88.50
2023-05-08T16:39:15.913Z,94.80
2023-05-08T16:41:42.939Z,74.10
2023-05-08T16:44:10.075Z,60.90
2023-05-08T16:46:37.112Z,67.90
2023-05-08T16:49:04.155Z,99.90
2023-05-08T16:51:32.376Z,92.10
2023-05-08T16:54:00.702Z,99.90
2023-05-08T16:56:27.781Z,76.40
2023-05-08T16:58:54.839Z,99.90
2023-05-08T17:01:22.086Z,99.90
2023-05-08T17:03:49.306Z,99.90
2023-05-08T17:06:16.438Z,99.90
2023-05-08T17:08:43.402Z,99.90
2023-05-08T17:11:10.659Z,99.90
2023-05-08T17:13:37.806Z,99.90
2023-05-08T17:16:05.172Z,99.90
2023-05-08T17:18:32.336Z,99.90
2023-05-08T17:20:59.376Z,99.90
2023-05-08T17:23:26.433Z,96.40
2023-05-08T17:26:01.102Z,68.90
2023-05-08T17:28:28.099Z,99.90
2023-05-08T17:30:55.201Z,99.20
2023-05-08T17:33:22.546Z,99.90
2023-05-08T17:35:52.889Z,92.10
2023-05-08T17:38:20.485Z,99.90
2023-05-08T17:40:50.927Z,96.10
2023-05-08T17:43:19.477Z,99.90
2023-05-08T17:45:51.249Z,81.00
2023-05-08T17:48:18.473Z,93.10
2023-05-08T17:50:46.959Z,41.50
2023-05-08T17:53:14.467Z,84.70
2023-05-08T17:55:41.932Z,91.30
2023-05-08T17:58:09.263Z,96.00
2023-05-08T18:00:37.725Z,90.90
2023-05-08T18:03:05.164Z,99.90
2023-05-08T18:05:32.373Z,99.90
2023-05-08T18:07:59.559Z,99.50
2023-05-08T18:10:26.592Z,99.90
2023-05-08T18:12:53.617Z,99.90
2023-05-08T18:15:20.819Z,99.90
2023-05-08T18:17:51.764Z,99.90
2023-05-08T18:20:20.914Z,99.90
2023-05-08T18:22:48.310Z,99.90
2023-05-08T18:25:15.902Z,99.90
2023-05-08T18:27:43.675Z,99.90
2023-05-08T18:30:11.317Z,99.90
2023-05-08T18:32:38.439Z,99.90
2023-05-08T18:35:06.133Z,99.90
2023-05-08T18:37:33.144Z,99.90
2023-05-08T18:40:00.183Z,92.60
2023-05-08T18:42:27.289Z,99.90
2023-05-08T18:44:57.296Z,99.90
2023-05-08T18:47:24.708Z,99.90
2023-05-08T18:49:56.900Z,99.90
2023-05-08T18:52:24.088Z,99.90
2023-05-08T18:54:51.151Z,99.90
2023-05-08T18:57:18.272Z,99.90
2023-05-08T18:59:45.358Z,99.90
2023-05-08T19:02:12.468Z,99.90
2023-05-08T19:04:40.661Z,99.90
2023-05-08T19:07:07.798Z,99.90
2023-05-08T19:09:35.013Z,99.90
2023-05-08T19:12:02.078Z,99.90
2023-05-08T19:14:29.125Z,99.90
2023-05-08T19:16:58.398Z,99.90
2023-05-08T19:19:25.689Z,99.90
2023-05-08T19:21:52.641Z,99.90
2023-05-08T19:24:21.029Z,99.90
2023-05-08T19:26:48.065Z,99.90
2023-05-08T19:29:15.139Z,99.90
2023-05-08T19:31:42.232Z,99.90
2023-05-08T19:34:09.290Z,99.90
2023-05-08T19:36:37.776Z,99.90
2023-05-08T19:39:05.288Z,99.90
2023-05-08T19:41:32.273Z,1.00
2023-05-08T19:43:59.272Z,1.00
2023-05-08T19:46:26.332Z,1.00
2023-05-08T19:48:53.345Z,1.00
2023-05-08T19:51:20.803Z,1.00
2023-05-08T19:53:47.963Z,1.00
2023-05-08T19:56:15.477Z,1.00
2023-05-08T19:58:42.664Z,1.00
2023-05-08T20:01:09.779Z,99.90
2023-05-08T20:03:36.957Z,99.90
2023-05-08T20:06:04.092Z,99.90
2023-05-08T20:08:31.101Z,99.90
2023-05-08T20:11:02.279Z,1.00
2023-05-08T20:13:29.594Z,1.00
2023-05-08T20:15:58.611Z,1.00
2023-05-08T20:18:26.091Z,1.00
2023-05-08T20:20:53.502Z,1.00
2023-05-08T20:23:20.494Z,1.00
2023-05-08T20:25:48.060Z,1.00
2023-05-08T20:28:16.103Z,1.00
2023-05-08T20:30:43.298Z,72.80
2023-05-08T20:33:10.468Z,98.10
2023-05-08T20:35:37.640Z,99.90
2023-05-08T20:38:04.731Z,99.90
2023-05-08T20:40:33.138Z,99.90
2023-05-08T20:43:00.515Z,99.90
2023-05-08T20:45:27.624Z,99.90
2023-05-08T20:47:54.626Z,99.90
2023-05-08T20:50:21.814Z,99.90
2023-05-08T20:52:48.932Z,99.90
2023-05-08T20:55:16.278Z,99.90
2023-05-08T20:57:43.442Z,99.90
2023-05-08T21:00:11.006Z,99.90
2023-05-08T21:02:42.743Z,99.90
2023-05-08T21:05:10.162Z,99.90
2023-05-08T21:07:37.294Z,99.90
2023-05-08T21:10:04.948Z,50.80
2023-05-08T21:12:31.997Z,99.90
2023-05-08T21:14:59.133Z,99.90
2023-05-08T21:17:26.465Z,8.30
2023-05-08T21:19:53.603Z,34.70
2023-05-08T21:22:21.247Z,99.90
2023-05-08T21:24:48.311Z,99.60
2023-05-08T21:27:15.389Z,20.90
2023-05-08T21:29:42.436Z,99.90
2023-05-08T21:32:10.439Z,99.90
2023-05-08T21:34:37.742Z,73.40
2023-05-08T21:37:04.811Z,99.90
2023-05-08T21:39:31.851Z,99.90
2023-05-08T21:41:58.931Z,99.90
2023-05-08T21:44:25.978Z,99.90
2023-05-08T21:46:53.039Z,99.90
2023-05-08T21:49:20.051Z,99.90
2023-05-08T21:51:47.125Z,99.90
2023-05-08T21:54:14.158Z,99.90
2023-05-08T21:56:41.339Z,1.00
2023-05-08T21:59:08.385Z,1.00
2023-05-08T22:01:35.499Z,1.00
2023-05-08T22:04:02.599Z,1.00
2023-05-08T22:06:29.714Z,1.00
2023-05-08T22:08:56.902Z,1.00
2023-05-08T22:11:24.202Z,1.00
2023-05-08T22:13:51.336Z,1.00
2023-05-08T22:16:18.616Z,1.00
2023-05-08T22:18:45.636Z,1.00
2023-05-08T22:21:12.634Z,1.00
2023-05-08T22:23:39.726Z,1.00
2023-05-08T22:26:07.106Z,1.00
2023-05-08T22:28:34.239Z,1.00
2023-05-08T22:31:01.296Z,1.00
2023-05-08T22:33:32.230Z,1.00
2023-05-08T22:35:59.755Z,1.00
2023-05-08T22:38:26.887Z,1.00
2023-05-08T22:40:56.506Z,1.00
2023-05-08T22:43:24.442Z,1.00
2023-05-08T22:45:51.640Z,1.00
2023-05-08T22:48:18.723Z,1.00
2023-05-08T22:50:46.053Z,1.00
2023-05-08T22:53:13.146Z,1.00
2023-05-08T22:55:40.247Z,1.00
2023-05-08T22:58:07.366Z,1.00
2023-05-08T23:00:34.414Z,1.00
2023-05-08T23:03:01.508Z,1.00
2023-05-08T23:05:29.356Z,87.60
2023-05-08T23:07:56.849Z,99.90
2023-05-08T23:10:24.928Z,99.90
2023-05-08T23:12:54.785Z,99.90
2023-05-08T23:15:22.543Z,99.90
2023-05-08T23:17:49.927Z,99.90
2023-05-08T23:20:17.242Z,99.90
2023-05-08T23:22:44.328Z,99.90
2023-05-08T23:25:14.738Z,1.00
2023-05-08T23:27:41.995Z,1.00
2023-05-08T23:30:12.976Z,1.00
2023-05-08T23:32:40.363Z,1.00
2023-05-08T23:35:08.067Z,1.00
2023-05-08T23:37:35.050Z,1.00
2023-05-08T23:40:02.392Z,1.00
2023-05-08T23:42:29.439Z,1.00
2023-05-08T23:44:56.470Z,1.00
2023-05-08T23:47:24.064Z,1.00
2023-05-08T23:49:51.159Z,1.00
2023-05-08T23:52:18.228Z,1.00
2023-05-08T23:54:45.610Z,1.00
2023-05-08T23:57:12.626Z,1.00
2023-05-08T23:59:39.679Z,1.00
